Time;durP1;ratioP1;P1;durP2;ratioP2;P2;SDS_P1;SDS_P2;PMS_P1;PMS_P2;Temp;Humidity;BMP_temperature;BMP_pressure;BME280_temperature;BME280_humidity;BME280_pressure;Samples;Min_cycle;Max_cycle;Signal;HPM_P1;HPM_P2
2023/05/26 07:07:39;;;;;;;20.40;10.20;;;13.40;96.50;;;;;;6046082;23;1333155;-80
2023/05/26 07:10:07;;;;;;;30.97;11.50;;;13.20;95.90;;;;;;6045137;23;20170;-81
2023/05/26 07:12:34;;;;;;;45.00;15.77;;;12.90;96.60;;;;;;6036859;23;20524;-81
2023/05/26 07:15:01;;;;;;;33.17;13.67;;;13.30;97.00;;;;;;6037532;23;20936;-81
2023/05/26 07:17:28;;;;;;;23.03;11.70;;;13.20;96.30;;;;;;6036928;23;20422;-80
2023/05/26 07:19:55;;;;;;;29.10;13.13;;;12.90;96.90;;;;;;6036531;23;20489;-80
2023/05/26 07:22:21;;;;;;;22.07;9.87;;;13.00;96.90;;;;;;6036689;23;20497;-81
2023/05/26 07:24:50;;;;;;;33.53;14.30;;;13.10;95.60;;;;;;6037357;23;20457;-80
2023/05/26 07:27:17;;;;;;;31.97;12.50;;;12.90;96.20;;;;;;6047019;23;20448;-84
2023/05/26 07:32:19;;;;;;;37.80;16.27;;;13.00;96.00;;;;;;6031695;23;20883;-64
2023/05/26 07:34:46;;;;;;;37.33;14.50;;;13.10;95.60;;;;;;6038959;23;20599;-64
2023/05/26 07:37:12;;;;;;;27.77;13.60;;;13.30;95.70;;;;;;6038832;23;20413;-64
2023/05/26 07:39:42;;;;;;;32.00;14.20;;;13.40;95.00;;;;;;6035483;23;20458;-69
2023/05/26 07:42:10;;;;;;;33.70;13.30;;;13.80;94.70;;;;;;6010880;23;20403;-69
2023/05/26 07:44:37;;;;;;;42.13;15.20;;;13.70;94.90;;;;;;6011675;23;20414;-69
2023/05/26 07:47:06;;;;;;;26.93;12.77;;;13.70;95.00;;;;;;6010999;23;20414;-69
2023/05/26 07:49:33;;;;;;;30.93;11.97;;;13.90;94.60;;;;;;6009484;23;20515;-69
2023/05/26 07:52:05;;;;;;;30.10;13.40;;;13.80;93.30;;;;;;6010143;23;20498;-70
2023/05/26 07:54:32;;;;;;;48.73;13.67;;;13.60;93.70;;;;;;6011999;23;20422;-69
2023/05/26 07:56:59;;;;;;;33.70;14.33;;;13.70;93.90;;;;;;6011511;23;20415;-70
2023/05/26 07:59:27;;;;;;;27.30;12.97;;;13.90;92.60;;;;;;6009540;23;20443;-69
2023/05/26 08:01:54;;;;;;;32.10;12.80;;;14.20;92.70;;;;;;6009774;23;20425;-69
2023/05/26 08:04:21;;;;;;;22.03;9.50;;;14.50;92.00;;;;;;6011546;23;20419;-75
2023/05/26 08:06:48;;;;;;;34.90;14.70;;;13.60;92.40;;;;;;6011575;23;20528;-74
2023/05/26 08:09:15;;;;;;;35.77;16.60;;;13.90;92.60;;;;;;6009019;23;20415;-74
2023/05/26 08:11:43;;;;;;;34.23;10.87;;;14.40;92.80;;;;;;6009799;23;20418;-74
2023/05/26 08:14:13;;;;;;;33.97;14.17;;;14.10;92.70;;;;;;6011526;23;20426;-74
2023/05/26 08:16:41;;;;;;;27.77;13.03;;;14.40;92.60;;;;;;6011665;23;20447;-74
2023/05/26 08:19:08;;;;;;;43.57;22.17;;;14.30;92.70;;;;;;6008423;23;20438;-74
2023/05/26 08:21:35;;;;;;;49.30;21.50;;;14.90;92.20;;;;;;6007088;23;20442;-74
2023/05/26 08:24:02;;;;;;;42.03;19.63;;;15.10;90.20;;;;;;6011874;23;20419;-74
2023/05/26 08:26:29;;;;;;;40.87;19.63;;;15.60;89.80;;;;;;6011428;23;20501;-74
2023/05/26 08:28:56;;;;;;;34.77;17.20;;;15.90;86.70;;;;;;6007906;23;20415;-74
2023/05/26 08:31:23;;;;;;;31.80;17.90;;;16.20;86.50;;;;;;6008183;23;20418;-73
2023/05/26 08:33:53;;;;;;;36.30;17.23;;;16.40;86.60;;;;;;6011726;23;20510;-73
2023/05/26 08:36:20;;;;;;;38.47;18.77;;;16.60;81.00;;;;;;6011731;23;20883;-73
2023/05/26 08:38:47;;;;;;;33.87;18.00;;;16.40;82.80;;;;;;6008028;23;20446;-74
2023/05/26 08:41:18;;;;;;;31.13;18.00;;;16.90;83.20;;;;;;6008086;23;20430;-73
2023/05/26 08:43:51;;;;;;;33.37;18.93;;;17.20;78.20;;;;;;6013564;23;20742;-73
2023/05/26 08:46:19;;;;;;;32.10;15.93;;;17.60;79.00;;;;;;6013431;23;20409;-73
2023/05/26 08:48:47;;;;;;;42.93;16.47;;;17.30;75.70;;;;;;6010269;23;20418;-73
2023/05/26 08:51:18;;;;;;;37.37;18.30;;;17.60;76.00;;;;;;6009859;23;21186;-73
2023/05/26 08:53:48;;;;;;;39.27;22.70;;;17.30;75.70;;;;;;6013959;23;20410;-73
2023/05/26 08:56:15;;;;;;;31.20;16.57;;;17.50;74.60;;;;;;6012755;23;20418;-73
2023/05/26 08:58:45;;;;;;;31.73;17.37;;;17.60;76.60;;;;;;6011488;23;20761;-73
2023/05/26 09:01:12;;;;;;;34.17;16.73;;;17.80;74.70;;;;;;6011653;23;20418;-73
2023/05/26 09:03:38;;;;;;;36.57;18.47;;;17.60;72.60;;;;;;6012902;23;20419;-74
2023/05/26 09:06:05;;;;;;;28.13;16.30;;;17.30;71.70;;;;;;6013057;23;20426;-73
2023/05/26 09:08:34;;;;;;;28.40;17.37;;;17.20;75.00;;;;;;6011309;23;20425;-73
2023/05/26 09:11:22;;;;;;;23.53;10.80;;;18.00;74.40;;;;;;6010501;23;20425;-75
2023/05/26 09:13:53;;;;;;;34.63;16.23;;;17.70;68.00;;;;;;6012907;23;20403;-73
2023/05/26 09:16:23;;;;;;;28.73;14.60;;;18.10;76.40;;;;;;6012905;23;20418;-64
2023/05/26 09:18:50;;;;;;;25.40;11.50;;;17.80;73.80;;;;;;6010996;23;20431;-64
2023/05/26 09:21:18;;;;;;;31.80;14.00;;;17.70;68.00;;;;;;6010898;23;20423;-65
2023/05/26 09:23:54;;;;;;;33.60;13.23;;;18.00;70.60;;;;;;6013196;23;20470;-64
2023/05/26 09:26:27;;;;;;;28.90;12.50;;;17.90;68.20;;;;;;6013229;23;20458;-64
2023/05/26 09:28:54;;;;;;;37.80;14.00;;;17.50;70.50;;;;;;6020315;23;20730;-64
2023/05/26 09:31:21;;;;;;;34.63;12.20;;;17.70;68.00;;;;;;6010808;23;20418;-64
2023/05/26 09:33:50;;;;;;;27.83;12.70;;;18.70;68.10;;;;;;6013092;23;20423;-64
2023/05/26 09:36:17;;;;;;;27.10;11.20;;;19.10;68.50;;;;;;6013049;23;20471;-64
2023/05/26 09:38:44;;;;;;;20.83;10.90;;;19.20;65.20;;;;;;6010733;23;20419;-64
2023/05/26 09:41:13;;;;;;;29.43;11.60;;;19.40;61.30;;;;;;6010605;23;20426;-64
2023/05/26 09:43:40;;;;;;;33.33;14.50;;;19.60;61.50;;;;;;6012681;23;20924;-64
2023/05/26 09:46:08;;;;;;;24.87;12.20;;;19.90;60.90;;;;;;6013002;23;20428;-64
2023/05/26 09:48:36;;;;;;;24.60;12.07;;;19.90;66.50;;;;;;6010804;23;20457;-64
2023/05/26 09:51:03;;;;;;;24.87;11.00;;;19.60;59.50;;;;;;6010871;23;20479;-64
2023/05/26 09:53:30;;;;;;;26.50;11.13;;;20.00;58.20;;;;;;6012857;23;20490;-64
2023/05/26 09:55:59;;;;;;;27.37;11.03;;;19.70;56.10;;;;;;6012871;23;20745;-64
2023/05/26 09:58:30;;;;;;;23.53;9.80;;;20.10;59.10;;;;;;6010629;23;20482;-64
2023/05/26 10:00:59;;;;;;;26.70;11.33;;;19.50;53.90;;;;;;6010660;23;20427;-64
2023/05/26 10:03:28;;;;;;;27.13;10.37;;;19.40;58.00;;;;;;6012690;23;20419;-64
2023/05/26 10:05:56;;;;;;;23.83;11.23;;;19.20;59.70;;;;;;6012423;23;20953;-64
2023/05/26 10:08:26;;;;;;;24.80;10.70;;;19.30;58.50;;;;;;6011792;23;20425;-64
2023/05/26 10:10:56;;;;;;;17.53;9.20;;;19.80;53.40;;;;;;6010728;23;20470;-64
2023/05/26 10:13:23;;;;;;;29.47;7.40;;;20.10;53.30;;;;;;6013256;23;20426;-65
2023/05/26 10:15:52;;;;;;;23.37;10.37;;;19.10;52.30;;;;;;6021563;23;20423;-66
2023/05/26 10:18:19;;;;;;;24.97;9.80;;;19.30;56.00;;;;;;6010824;23;20907;-66
2023/05/26 10:20:48;;;;;;;24.87;9.10;;;20.00;53.20;;;;;;6010705;23;20439;-67
2023/05/26 10:23:21;;;;;;;23.70;9.53;;;20.40;51.70;;;;;;6012432;23;20418;-67
2023/05/26 10:25:55;;;;;;;24.57;7.80;;;21.10;49.10;;;;;;6012510;23;20478;-66
2023/05/26 10:28:28;;;;;;;25.83;8.60;;;20.70;47.00;;;;;;6010981;23;20410;-66
2023/05/26 10:31:01;;;;;;;26.37;9.67;;;21.00;52.40;;;;;;6011223;23;20402;-66
2023/05/26 10:33:39;;;;;;;35.03;6.60;;;21.20;53.30;;;;;;6012386;23;20403;-66
2023/05/26 10:36:08;;;;;;;19.30;7.40;;;20.80;42.80;;;;;;6012164;23;20868;-66
2023/05/26 10:38:38;;;;;;;21.80;6.60;;;20.60;44.60;;;;;;6010651;23;20482;-66
2023/05/26 10:41:11;;;;;;;20.77;6.47;;;20.30;48.10;;;;;;6010181;23;20450;-66
2023/05/26 10:43:38;;;;;;;22.03;7.87;;;20.40;47.30;;;;;;6012072;23;20459;-66
2023/05/26 10:46:07;;;;;;;16.70;6.70;;;20.70;45.00;;;;;;6012042;23;20423;-65
2023/05/26 10:48:38;;;;;;;16.23;5.87;;;20.10;44.40;;;;;;6010609;23;21127;-66
2023/05/26 10:51:24;;;;;;;19.70;6.63;;;21.00;46.90;;;;;;6010360;23;20791;-65
2023/05/26 10:53:56;;;;;;;24.90;6.90;;;20.40;48.70;;;;;;6012247;23;20478;-67
2023/05/26 10:56:34;;;;;;;19.90;6.77;;;21.80;46.00;;;;;;6012252;23;20409;-66
2023/05/26 10:59:03;;;;;;;25.77;7.40;;;21.10;40.80;;;;;;6010019;23;20409;-66
2023/05/26 11:01:32;;;;;;;16.43;6.70;;;21.30;41.20;;;;;;6009551;23;20505;-66
2023/05/26 11:04:08;;;;;;;19.90;6.20;;;21.70;42.50;;;;;;6011941;23;20747;-64
2023/05/26 11:06:43;;;;;;;20.47;6.40;;;20.90;39.10;;;;;;6012108;23;20467;-64
2023/05/26 11:09:10;;;;;;;21.40;5.87;;;21.00;45.30;;;;;;6009959;23;20486;-66
2023/05/26 11:11:38;;;;;;;24.93;7.07;;;21.10;40.10;;;;;;6010332;23;20502;-66
2023/05/26 11:14:09;;;;;;;24.97;7.20;;;21.70;36.90;;;;;;6011810;23;20509;-65
2023/05/26 11:16:40;;;;;;;21.23;7.20;;;21.70;41.50;;;;;;6012074;23;20459;-66
2023/05/26 11:19:09;;;;;;;26.90;9.70;;;22.60;37.70;;;;;;6010500;23;20434;-66
2023/05/26 11:21:37;;;;;;;17.87;8.33;;;22.40;32.90;;;;;;6010522;23;20422;-66
2023/05/26 11:24:05;;;;;;;26.50;9.17;;;23.10;35.40;;;;;;6011738;23;20423;-67
2023/05/26 11:26:33;;;;;;;21.97;8.00;;;23.00;29.20;;;;;;6011705;23;20426;-66
2023/05/26 11:29:02;;;;;;;22.93;8.00;;;22.50;32.50;;;;;;6010533;23;20425;-66
2023/05/26 11:31:30;;;;;;;24.93;7.87;;;22.70;33.00;;;;;;6019701;23;20478;-66
2023/05/26 11:33:59;;;;;;;24.40;7.00;;;23.70;29.70;;;;;;6011719;23;20470;-66
2023/05/26 11:36:27;;;;;;;31.43;7.70;;;22.60;34.90;;;;;;6011681;23;20422;-65
2023/05/26 11:38:58;;;;;;;24.77;7.33;;;22.50;35.70;;;;;;6010121;23;20398;-65
2023/05/26 11:41:26;;;;;;;27.90;6.90;;;23.00;29.20;;;;;;6010124;23;20451;-65
2023/05/26 11:43:54;;;;;;;21.20;6.90;;;23.00;35.80;;;;;;6011994;23;20513;-65
2023/05/26 11:46:23;;;;;;;22.27;7.97;;;22.50;33.90;;;;;;6011628;23;20418;-65
2023/05/26 11:48:55;;;;;;;21.33;7.17;;;23.70;26.90;;;;;;6009862;23;20419;-63
2023/05/26 11:51:26;;;;;;;19.73;6.33;;;23.70;27.00;;;;;;6009898;23;20402;-63
2023/05/26 11:53:55;;;;;;;22.40;7.83;;;23.50;24.60;;;;;;6012097;23;20403;-63
2023/05/26 11:56:22;;;;;;;20.27;6.97;;;24.20;25.10;;;;;;6011389;23;20426;-63
2023/05/26 11:58:54;;;;;;;18.30;5.90;;;24.30;22.80;;;;;;6010460;23;20421;-64
2023/05/26 12:01:22;;;;;;;24.83;7.17;;;24.30;22.80;;;;;;6010288;23;20402;-64
2023/05/26 12:03:51;;;;;;;20.20;6.70;;;24.20;22.70;;;;;;6011783;23;20425;-63
2023/05/26 12:06:19;;;;;;;16.57;5.43;;;23.20;22.00;;;;;;6011870;23;20418;-64
2023/05/26 12:08:51;;;;;;;27.60;8.37;;;22.80;22.80;;;;;;6010370;23;20504;-64
2023/05/26 12:11:21;;;;;;;17.27;6.40;;;23.40;22.20;;;;;;6010108;23;20399;-65
2023/05/26 12:13:57;;;;;;;24.03;6.40;;;23.80;22.40;;;;;;6011935;23;20779;-64
2023/05/26 12:16:25;;;;;;;18.90;5.67;;;24.80;23.20;;;;;;6013079;23;20403;-64
2023/05/26 12:18:54;;;;;;;21.93;6.90;;;24.50;18.80;;;;;;6011453;23;20418;-64
2023/05/26 12:21:22;;;;;;;20.40;6.83;;;24.50;23.00;;;;;;6012028;23;20736;-64
2023/05/26 12:23:50;;;;;;;19.27;5.60;;;24.80;19.50;;;;;;6013304;23;20986;-64
2023/05/26 12:26:18;;;;;;;20.27;6.63;;;23.50;18.50;;;;;;6013603;23;20478;-66
2023/05/26 12:28:45;;;;;;;22.80;6.90;;;23.90;22.50;;;;;;6012343;23;20900;-65
2023/05/26 12:31:18;;;;;;;19.53;6.27;;;23.50;18.70;;;;;;6011901;23;20437;-66
2023/05/26 12:33:45;;;;;;;25.37;7.50;;;23.80;20.00;;;;;;6013217;23;20402;-64
2023/05/26 12:36:12;;;;;;;21.70;7.47;;;23.00;19.60;;;;;;6013574;23;20418;-64
2023/05/26 12:38:43;;;;;;;19.43;5.77;;;23.60;22.30;;;;;;6012477;23;20426;-63
2023/05/26 12:41:11;;;;;;;18.87;5.73;;;23.20;21.00;;;;;;6011659;23;20442;-63
2023/05/26 12:43:38;;;;;;;20.60;5.67;;;23.40;22.20;;;;;;6013466;23;20419;-65
2023/05/26 12:46:05;;;;;;;19.83;6.23;;;23.60;22.30;;;;;;6013505;23;20415;-66
2023/05/26 12:48:32;;;;;;;17.80;6.43;;;24.20;22.70;;;;;;6012212;23;20419;-65
2023/05/26 12:51:01;;;;;;;15.50;4.60;;;24.10;18.20;;;;;;6011789;23;20505;-65
2023/05/26 12:53:28;;;;;;;19.13;6.27;;;24.10;15.10;;;;;;6013218;23;20426;-65
2023/05/26 12:58:45;;;;;;;19.27;6.93;;;24.00;16.30;;;;;;6022178;23;20458;-91
2023/05/26 13:01:14;;;;;;;21.10;6.63;;;25.10;15.90;;;;;;6025553;23;20468;-90
2023/05/26 13:03:42;;;;;;;15.20;5.90;;;24.40;14.60;;;;;;6015808;23;20448;-90
2023/05/26 13:19:13;;;;;;;19.60;5.93;;;23.40;7.10;;;;;;6010130;23;20430;-92
2023/05/26 13:21:41;;;;;;;19.43;5.63;;;23.70;13.00;;;;;;6020337;23;20402;-90
2023/05/26 13:27:12;;;;;;;29.30;5.73;;;25.20;11.80;;;;;;6003543;23;20960;-87
2023/05/26 13:29:40;;;;;;;19.50;4.63;;;25.40;11.60;;;;;;6019237;23;20431;-86
2023/05/26 13:32:16;;;;;;;19.20;5.90;;;25.90;8.30;;;;;;6010591;23;20921;-89
2023/05/26 13:34:50;;;;;;;18.13;5.03;;;26.00;8.70;;;;;;6019588;23;20426;-89
2023/05/26 13:37:18;;;;;;;15.00;3.93;;;26.10;7.70;;;;;;6016586;23;20443;-89
2023/05/26 13:39:48;;;;;;;19.33;6.17;;;24.00;7.40;;;;;;6007478;23;20958;-90
2023/05/26 13:42:20;;;;;;;17.83;5.33;;;24.20;9.00;;;;;;6009824;23;20896;-88
2023/05/26 13:47:25;;;;;;;15.53;5.43;;;24.50;7.80;;;;;;6011622;23;20471;-64
2023/05/26 13:49:53;;;;;;;18.80;5.07;;;25.30;6.60;;;;;;6011032;23;20489;-63
2023/05/26 13:52:20;;;;;;;23.87;4.67;;;25.80;3.70;;;;;;6010334;23;20424;-64
2023/05/26 13:54:47;;;;;;;15.43;4.83;;;25.50;5.20;;;;;;6010341;23;20729;-63
2023/05/26 13:57:13;;;;;;;17.97;5.40;;;23.80;6.00;;;;;;6018638;23;20970;-63
2023/05/26 13:59:41;;;;;;;25.30;6.00;;;23.80;7.20;;;;;;6009578;23;20437;-63
2023/05/26 14:02:09;;;;;;;19.10;5.50;;;24.50;7.80;;;;;;6008769;23;20912;-65
2023/05/26 14:04:35;;;;;;;18.90;5.23;;;25.40;3.90;;;;;;6009054;23;20391;-64
2023/05/26 14:07:04;;;;;;;12.63;4.03;;;24.50;7.00;;;;;;6009870;23;20426;-64
2023/05/26 14:09:31;;;;;;;15.37;5.07;;;24.80;6.20;;;;;;6009014;23;20444;-64
2023/05/26 14:11:58;;;;;;;14.07;5.20;;;25.00;1.00;;;;;;6008211;23;20951;-66
2023/05/26 14:14:25;;;;;;;15.80;4.73;;;24.30;1.00;;;;;;6009842;23;20907;-66
2023/05/26 14:16:52;;;;;;;14.90;3.20;;;24.70;3.10;;;;;;6010753;23;20427;-66
2023/05/26 14:19:18;;;;;;;16.33;4.00;;;23.30;1.00;;;;;;6010228;23;20441;-66
2023/05/26 14:21:46;;;;;;;15.93;4.60;;;23.10;1.00;;;;;;6009419;23;20415;-66
2023/05/26 14:24:15;;;;;;;13.93;4.50;;;23.50;1.00;;;;;;6009582;23;20474;-67
2023/05/26 14:26:41;;;;;;;17.93;5.03;;;23.60;1.00;;;;;;6010369;23;20743;-67
2023/05/26 14:29:08;;;;;;;17.23;4.53;;;23.90;1.50;;;;;;6009489;23;20419;-66
2023/05/26 14:31:35;;;;;;;14.83;5.00;;;23.30;1.00;;;;;;6009458;23;20445;-67
2023/05/26 14:34:02;;;;;;;14.90;4.63;;;24.10;1.00;;;;;;6009910;23;20961;-67
2023/05/26 14:36:29;;;;;;;15.83;4.43;;;23.80;1.00;;;;;;6009832;23;20425;-67
2023/05/26 14:38:58;;;;;;;13.70;4.20;;;24.30;1.00;;;;;;6009405;23;20425;-66
2023/05/26 14:41:26;;;;;;;20.03;5.20;;;24.60;1.00;;;;;;6009593;23;20932;-67
2023/05/26 14:43:53;;;;;;;19.17;4.33;;;24.80;1.00;;;;;;6010687;23;20419;-67
2023/05/26 14:46:20;;;;;;;13.75;3.97;;;25.50;1.00;;;;;;6010254;23;20425;-67
2023/05/26 14:48:47;;;;;;;13.00;3.73;;;24.50;1.00;;;;;;6010470;23;20649;-67
2023/05/26 14:51:14;;;;;;;17.23;5.03;;;24.80;1.00;;;;;;6010177;23;20447;-67
2023/05/26 14:53:41;;;;;;;12.27;3.70;;;24.70;1.00;;;;;;6010275;23;20446;-67
2023/05/26 14:56:08;;;;;;;16.47;4.37;;;24.20;1.00;;;;;;6010672;23;20508;-67
2023/05/26 14:58:36;;;;;;;16.20;3.70;;;24.60;1.00;;;;;;6010882;23;20430;-66
2023/05/26 15:01:03;;;;;;;13.73;4.67;;;24.80;1.00;;;;;;6009903;23;20475;-66
2023/05/26 15:03:29;;;;;;;15.73;4.53;;;24.50;1.00;;;;;;6010441;23;20419;-67
2023/05/26 15:05:56;;;;;;;15.40;5.30;;;24.90;1.00;;;;;;6010387;23;20426;-67
2023/05/26 15:08:23;;;;;;;21.03;4.93;;;24.80;1.00;;;;;;6010916;23;20419;-68
2023/05/26 15:10:50;;;;;;;14.23;4.43;;;25.40;1.00;;;;;;6010241;23;20743;-66
2023/05/26 15:13:17;;;;;;;12.57;3.53;;;25.50;1.00;;;;;;6009699;23;20419;-67
2023/05/26 15:15:47;;;;;;;11.83;3.47;;;25.90;1.00;;;;;;6010519;23;21059;-67
2023/05/26 15:18:14;;;;;;;11.03;4.00;;;25.50;1.00;;;;;;6011024;23;20491;-67
2023/05/26 15:20:41;;;;;;;14.70;4.40;;;23.70;1.00;;;;;;6008362;23;20421;-63
2023/05/26 15:23:08;;;;;;;15.80;4.63;;;24.70;1.00;;;;;;6009415;23;20426;-63
2023/05/26 15:25:35;;;;;;;19.97;3.83;;;25.00;1.00;;;;;;6009699;23;20423;-64
2023/05/26 15:28:02;;;;;;;18.73;4.10;;;24.60;1.00;;;;;;6010829;23;20426;-63
2023/05/26 15:30:28;;;;;;;10.27;3.90;;;24.50;1.00;;;;;;6009814;23;20418;-64
2023/05/26 15:32:56;;;;;;;16.23;3.80;;;23.70;1.00;;;;;;6009774;23;20419;-63
2023/05/26 15:35:23;;;;;;;12.20;4.10;;;24.50;1.00;;;;;;6009611;23;20425;-63
2023/05/26 15:37:50;;;;;;;10.53;3.57;;;24.90;1.00;;;;;;6010509;23;20446;-64
2023/05/26 15:40:17;;;;;;;12.77;3.40;;;24.10;1.00;;;;;;6009945;23;20518;-63
2023/05/26 15:42:44;;;;;;;11.60;3.93;;;23.70;1.00;;;;;;6009433;23;20441;-64
2023/05/26 15:45:11;;;;;;;10.40;3.43;;;24.30;1.00;;;;;;6010207;23;20724;-64
2023/05/26 15:47:38;;;;;;;15.73;4.17;;;24.60;1.00;;;;;;6009950;23;20434;-66
2023/05/26 15:50:08;;;;;;;13.13;3.40;;;25.10;1.00;;;;;;6009651;23;20394;-66
2023/05/26 15:52:35;;;;;;;12.10;4.00;;;25.50;1.00;;;;;;6007982;23;20425;-66
2023/05/26 15:55:03;;;;;;;11.93;3.87;;;25.40;1.00;;;;;;6010267;23;20180;-67
2023/05/26 15:57:38;;;;;;;11.40;3.60;;;25.20;1.00;;;;;;6012991;23;20939;-64
2023/05/26 16:00:07;;;;;;;11.63;3.87;;;24.40;1.00;;;;;;5981056;24;20974;-64
2023/05/26 16:02:34;;;;;;;13.00;3.60;;;23.60;1.00;;;;;;5979750;24;20450;-63
2023/05/26 16:05:00;;;;;;;11.90;3.93;;;24.40;1.00;;;;;;5981085;24;20175;-64
2023/05/26 16:07:28;;;;;;;14.17;3.40;;;23.90;1.00;;;;;;5981584;24;20419;-65
2023/05/26 16:09:55;;;;;;;11.80;3.57;;;24.10;1.00;;;;;;5981289;24;20471;-64
2023/05/26 16:12:22;;;;;;;16.33;4.00;;;24.40;1.00;;;;;;5980736;24;20447;-64
2023/05/26 16:14:49;;;;;;;12.33;4.10;;;24.50;1.00;;;;;;5981710;24;20426;-64
2023/05/26 16:17:16;;;;;;;11.97;3.70;;;24.70;1.00;;;;;;5982584;24;20470;-65
2023/05/26 16:19:42;;;;;;;11.33;4.07;;;24.50;1.00;;;;;;5981395;24;20419;-64
2023/05/26 16:22:09;;;;;;;12.20;4.40;;;23.90;1.00;;;;;;5981115;24;20415;-64
2023/05/26 16:24:37;;;;;;;12.17;3.50;;;24.10;1.00;;;;;;5982096;24;20401;-65
2023/05/26 16:27:06;;;;;;;13.27;4.10;;;23.50;1.00;;;;;;5981532;24;20419;-65
2023/05/26 16:29:34;;;;;;;13.80;4.07;;;24.20;1.00;;;;;;5981864;24;20919;-64
2023/05/26 16:32:01;;;;;;;15.67;4.37;;;24.50;1.00;;;;;;5981158;24;20443;-65
2023/05/26 16:34:27;;;;;;;12.03;3.43;;;24.00;1.00;;;;;;5981745;24;20427;-65
2023/05/26 16:36:54;;;;;;;19.13;4.17;;;23.50;1.00;;;;;;5982023;24;20427;-64
2023/05/26 16:39:21;;;;;;;17.63;4.50;;;23.90;1.00;;;;;;5981017;24;20398;-64
2023/05/26 16:41:49;;;;;;;14.40;3.90;;;24.80;1.00;;;;;;5981559;24;20426;-65
2023/05/26 16:44:16;;;;;;;11.10;3.10;;;25.00;1.00;;;;;;5981950;24;20420;-65
2023/05/26 16:46:43;;;;;;;10.60;3.77;;;24.00;1.00;;;;;;5982365;24;20418;-65
2023/05/26 16:49:11;;;;;;;11.17;3.70;;;24.40;1.00;;;;;;5981779;24;20426;-65
2023/05/26 16:51:38;;;;;;;15.45;3.80;;;24.70;1.00;;;;;;5978841;24;20453;-65
2023/05/26 16:54:05;;;;;;;18.50;3.90;;;24.90;1.00;;;;;;5980702;24;20179;-65
2023/05/26 16:56:35;;;;;;;11.83;3.40;;;24.80;1.00;;;;;;5981084;24;20918;-62
2023/05/26 16:59:03;;;;;;;17.40;3.90;;;25.00;1.00;;;;;;5980974;24;20740;-67
2023/05/26 17:01:30;;;;;;;10.43;3.60;;;24.80;1.00;;;;;;5980823;24;20416;-65
2023/05/26 17:03:57;;;;;;;12.60;3.90;;;24.90;1.00;;;;;;5981429;24;20420;-65
2023/05/26 17:06:23;;;;;;;11.13;2.97;;;24.40;1.00;;;;;;5982230;24;20420;-65
2023/05/26 17:08:50;;;;;;;15.13;3.63;;;24.10;1.00;;;;;;5982023;24;20762;-65
2023/05/26 17:11:17;;;;;;;11.23;3.90;;;24.90;1.00;;;;;;5982015;24;20442;-65
2023/05/26 17:13:44;;;;;;;10.00;3.30;;;24.60;1.00;;;;;;5982653;24;20479;-65
2023/05/26 17:16:12;;;;;;;11.07;3.10;;;24.80;1.00;;;;;;5983307;24;20506;-66
2023/05/26 17:18:39;;;;;;;13.40;4.07;;;24.50;1.00;;;;;;5983182;24;20423;-66
2023/05/26 17:21:06;;;;;;;15.93;3.97;;;25.20;1.00;;;;;;5982239;24;20415;-64
2023/05/26 17:23:33;;;;;;;12.73;3.97;;;25.30;1.00;;;;;;5983487;24;20427;-64
2023/05/26 17:26:00;;;;;;;15.30;4.60;;;25.20;1.00;;;;;;5983373;24;20423;-64
2023/05/26 17:28:27;;;;;;;11.00;3.80;;;25.30;1.00;;;;;;5983318;24;20926;-64
2023/05/26 17:30:54;;;;;;;16.60;4.13;;;25.10;1.00;;;;;;5977953;24;20424;-63
2023/05/26 17:33:22;;;;;;;15.13;4.23;;;25.60;1.00;;;;;;5980316;24;20419;-62
2023/05/26 17:35:48;;;;;;;11.93;4.00;;;25.90;1.00;;;;;;5980845;24;20424;-63
2023/05/26 17:38:15;;;;;;;17.70;4.27;;;25.60;1.00;;;;;;5981817;24;20427;-62
2023/05/26 17:40:42;;;;;;;9.57;3.27;;;25.30;1.00;;;;;;5980458;24;20427;-62
2023/05/26 17:43:09;;;;;;;11.87;3.20;;;25.40;1.00;;;;;;5980999;24;20430;-63
2023/05/26 17:45:36;;;;;;;15.10;3.10;;;24.50;1.00;;;;;;5980119;24;20690;-63
2023/05/26 17:48:03;;;;;;;13.47;3.10;;;25.00;1.00;;;;;;5980025;24;20425;-63
2023/05/26 17:50:34;;;;;;;13.70;3.23;;;24.70;1.00;;;;;;5981160;24;20424;-63
2023/05/26 17:53:01;;;;;;;13.20;3.60;;;24.70;1.00;;;;;;5980359;24;20451;-63
2023/05/26 17:55:28;;;;;;;17.37;4.10;;;24.40;1.00;;;;;;5980982;24;20451;-63
2023/05/26 17:57:55;;;;;;;11.60;3.50;;;24.10;1.00;;;;;;5982117;24;20451;-63
2023/05/26 18:00:22;;;;;;;14.57;4.60;;;23.80;1.00;;;;;;5981968;24;20701;-63
2023/05/26 18:02:49;;;;;;;13.83;3.33;;;24.20;1.00;;;;;;5980208;24;20478;-63
2023/05/26 18:05:17;;;;;;;15.23;4.33;;;24.10;1.00;;;;;;5981405;24;20419;-63
2023/05/26 18:07:45;;;;;;;16.43;4.37;;;23.50;1.00;;;;;;5981528;24;20510;-63
2023/05/26 18:10:12;;;;;;;12.87;4.50;;;23.70;1.00;;;;;;5981424;24;20431;-63
2023/05/26 18:12:39;;;;;;;13.00;3.57;;;23.60;1.00;;;;;;5981203;24;20443;-63
2023/05/26 18:15:07;;;;;;;10.73;3.10;;;23.50;1.00;;;;;;5981454;24;20420;-63
2023/05/26 18:17:35;;;;;;;15.80;3.57;;;23.50;1.00;;;;;;5981259;24;20446;-63
2023/05/26 18:20:02;;;;;;;12.37;3.90;;;22.70;1.00;;;;;;5982114;24;20420;-63
2023/05/26 18:22:28;;;;;;;11.30;3.30;;;22.70;1.00;;;;;;5981588;24;20420;-63
2023/05/26 18:24:58;;;;;;;10.63;3.10;;;22.40;1.00;;;;;;5981994;24;20896;-62
2023/05/26 18:27:25;;;;;;;13.27;3.67;;;22.00;1.00;;;;;;5982448;24;20446;-63
2023/05/26 18:29:52;;;;;;;14.73;3.40;;;21.70;1.00;;;;;;5981456;24;20419;-63
2023/05/26 18:32:19;;;;;;;15.20;3.50;;;21.60;1.00;;;;;;5981164;24;20439;-62
2023/05/26 18:34:46;;;;;;;18.00;3.70;;;21.50;1.00;;;;;;5982003;24;20420;-64
2023/05/26 18:37:13;;;;;;;13.53;3.90;;;21.30;1.00;;;;;;5982768;24;20426;-63
2023/05/26 18:39:39;;;;;;;18.33;4.20;;;20.80;1.00;;;;;;5982344;24;20714;-63
2023/05/26 18:42:08;;;;;;;13.40;3.77;;;20.30;1.00;;;;;;5980464;24;20415;-63
2023/05/26 18:44:35;;;;;;;11.53;3.60;;;20.00;1.00;;;;;;5981143;24;20419;-62
2023/05/26 18:47:02;;;;;;;15.40;3.87;;;19.70;1.00;;;;;;5990572;24;20424;-62
2023/05/26 18:49:30;;;;;;;15.17;4.07;;;19.40;1.00;;;;;;5989959;24;20799;-63
2023/05/26 18:51:57;;;;;;;16.50;4.30;;;19.20;1.00;;;;;;5980620;24;20500;-63
2023/05/26 18:54:24;;;;;;;11.03;3.80;;;18.80;1.00;;;;;;5981554;24;20420;-63
2023/05/26 18:59:32;;;;;;;19.83;4.60;;;18.20;3.20;;;;;;6008139;23;20418;-70
2023/05/26 19:02:00;;;;;;;10.93;3.80;;;17.90;4.40;;;;;;6007020;23;20414;-70
2023/05/26 19:04:28;;;;;;;15.10;4.00;;;17.50;7.30;;;;;;6009934;23;20419;-70
2023/05/26 19:06:56;;;;;;;16.17;3.87;;;17.10;8.20;;;;;;6009783;23;20478;-70
2023/05/26 19:09:23;;;;;;;13.07;3.67;;;16.70;9.80;;;;;;6009714;23;20418;-70
2023/05/26 19:11:51;;;;;;;16.57;3.33;;;16.40;11.50;;;;;;6010267;23;20447;-70
2023/05/26 19:14:18;;;;;;;13.07;3.23;;;16.10;16.00;;;;;;6010382;23;20418;-70
2023/05/26 19:16:46;;;;;;;14.27;4.87;;;15.70;16.60;;;;;;6009997;23;20418;-70
2023/05/26 19:19:13;;;;;;;11.60;3.93;;;15.50;16.50;;;;;;6010612;23;20425;-71
2023/05/26 19:21:40;;;;;;;11.47;3.33;;;15.30;18.00;;;;;;6010119;23;20419;-70
2023/05/26 19:24:07;;;;;;;11.80;3.60;;;15.10;19.90;;;;;;6010560;23;20423;-70
2023/05/26 19:26:34;;;;;;;11.30;4.43;;;14.90;21.50;;;;;;6010333;23;20749;-70
2023/05/26 19:29:01;;;;;;;11.33;3.87;;;14.70;23.20;;;;;;6010126;23;20418;-71
2023/05/26 19:31:29;;;;;;;13.40;4.40;;;14.40;24.90;;;;;;6009619;23;20419;-71
2023/05/26 19:33:57;;;;;;;12.17;3.57;;;14.40;26.60;;;;;;6010611;23;20419;-70
2023/05/26 19:36:25;;;;;;;10.73;3.57;;;14.10;29.80;;;;;;6009024;23;20418;-70
2023/05/26 19:38:52;;;;;;;12.80;3.83;;;13.90;29.80;;;;;;6010467;23;20419;-70
2023/05/26 19:41:19;;;;;;;11.97;4.57;;;13.70;30.60;;;;;;6010398;23;20419;-70
2023/05/26 19:43:45;;;;;;;17.97;4.63;;;13.50;36.20;;;;;;6010191;23;21102;-70
2023/05/26 19:46:12;;;;;;;21.83;4.07;;;13.30;38.90;;;;;;6010517;23;20800;-70
2023/05/26 19:48:39;;;;;;;12.60;4.53;;;13.10;38.20;;;;;;6010358;23;20731;-70
2023/05/26 19:51:09;;;;;;;13.67;3.40;;;13.10;41.00;;;;;;6009776;23;20426;-70
2023/05/26 19:53:37;;;;;;;16.70;4.00;;;13.00;41.60;;;;;;6010349;23;20399;-71
2023/05/26 19:56:04;;;;;;;13.80;4.03;;;12.90;42.50;;;;;;6010074;23;20425;-70
2023/05/26 19:58:31;;;;;;;9.37;3.30;;;12.80;43.60;;;;;;6010171;23;20803;-70
2023/05/26 20:00:58;;;;;;;11.17;3.30;;;12.80;46.30;;;;;;6009863;23;20429;-70
2023/05/26 20:03:25;;;;;;;9.50;3.47;;;12.80;45.60;;;;;;6009765;23;20949;-70
2023/05/26 20:05:52;;;;;;;16.33;3.73;;;12.90;44.90;;;;;;6010305;23;20422;-71
2023/05/26 20:08:20;;;;;;;14.27;4.10;;;13.00;45.50;;;;;;6010202;23;20418;-70
2023/05/26 20:10:47;;;;;;;10.53;3.60;;;12.90;46.60;;;;;;6010444;23;20779;-70
2023/05/26 20:13:14;;;;;;;10.80;3.83;;;12.80;46.40;;;;;;6010173;23;20446;-70
2023/05/26 20:15:41;;;;;;;10.63;3.40;;;12.60;46.30;;;;;;6010121;23;20426;-69